sensor_id;sensor_type;location;lat;lon;timestamp;pressure;altitude;pressure_sealevel;temperature;humidity
40245;BME280;25963;42.694;23.600;2023-09-18T00:00:26;95675.72;;;20.11;100.00
40245;BME280;25963;42.694;23.600;2023-09-18T00:02:51;95638.59;;;19.56;100.00
40245;BME280;25963;42.694;23.600;2023-09-18T00:05:45;95668.16;;;19.87;100.00
40245;BME280;25963;42.694;23.600;2023-09-18T00:08:14;95675.63;;;19.75;100.00
40245;BME280;25963;42.694;23.600;2023-09-18T00:11:14;95709.53;;;20.37;99.90
40245;BME280;25963;42.694;23.600;2023-09-18T00:13:45;95683.50;;;20.27;98.86
40245;BME280;25963;42.694;23.600;2023-09-18T00:16:11;95674.09;;;20.10;99.07
40245;BME280;25963;42.694;23.600;2023-09-18T00:18:38;95641.13;;;19.83;99.55
40245;BME280;25963;42.694;23.600;2023-09-18T00:21:10;95645.00;;;19.55;100.00
40245;BME280;25963;42.694;23.600;2023-09-18T00:23:47;95681.38;;;20.24;98.07
40245;BME280;25963;42.694;23.600;2023-09-18T00:26:25;95666.38;;;19.50;100.00
40245;BME280;25963;42.694;23.600;2023-09-18T00:28:56;95661.00;;;19.40;100.00
40245;BME280;25963;42.694;23.600;2023-09-18T00:31:48;95698.56;;;19.60;100.00
40245;BME280;25963;42.694;23.600;2023-09-18T00:34:13;95693.03;;;19.82;99.54
40245;BME280;25963;42.694;23.600;2023-09-18T00:36:38;95649.25;;;19.46;99.40
40245;BME280;25963;42.694;23.600;2023-09-18T00:39:09;95649.03;;;19.58;98.79
40245;BME280;25963;42.694;23.600;2023-09-18T00:44:21;95683.44;;;19.97;97.54
40245;BME280;25963;42.694;23.600;2023-09-18T00:46:56;95712.09;;;19.96;97.74
40245;BME280;25963;42.694;23.600;2023-09-18T00:52:04;95682.09;;;19.94;96.44
40245;BME280;25963;42.694;23.600;2023-09-18T00:54:31;95696.09;;;20.22;96.04
40245;BME280;25963;42.694;23.600;2023-09-18T00:57:00;95681.31;;;20.04;96.35
40245;BME280;25963;42.694;23.600;2023-09-18T00:59:31;95624.97;;;19.63;96.36
40245;BME280;25963;42.694;23.600;2023-09-18T01:05:16;95695.06;;;20.43;95.11
40245;BME280;25963;42.694;23.600;2023-09-18T01:07:42;95701.53;;;20.68;93.93
40245;BME280;25963;42.694;23.600;2023-09-18T01:10:08;95705.84;;;20.74;93.28
40245;BME280;25963;42.694;23.600;2023-09-18T01:12:46;95686.19;;;20.27;93.72
40245;BME280;25963;42.694;23.600;2023-09-18T01:15:12;95714.31;;;20.25;94.15
40245;BME280;25963;42.694;23.600;2023-09-18T01:17:40;95673.59;;;20.23;93.41
40245;BME280;25963;42.694;23.600;2023-09-18T01:20:10;95720.81;;;20.49;93.21
40245;BME280;25963;42.694;23.600;2023-09-18T01:22:36;95701.81;;;20.56;92.52
40245;BME280;25963;42.694;23.600;2023-09-18T01:25:01;95718.97;;;20.55;93.39
40245;BME280;25963;42.694;23.600;2023-09-18T01:27:27;95689.59;;;19.87;95.19
40245;BME280;25963;42.694;23.600;2023-09-18T01:29:53;95702.06;;;20.55;93.03
40245;BME280;25963;42.694;23.600;2023-09-18T01:32:19;95720.22;;;20.42;93.68
40245;BME280;25963;42.694;23.600;2023-09-18T01:34:48;95703.06;;;20.18;94.65
40245;BME280;25963;42.694;23.600;2023-09-18T01:37:15;95714.34;;;20.45;94.26
40245;BME280;25963;42.694;23.600;2023-09-18T01:39:42;95712.53;;;20.61;93.35
40245;BME280;25963;42.694;23.600;2023-09-18T01:42:08;95710.13;;;20.60;93.22
40245;BME280;25963;42.694;23.600;2023-09-18T01:44:37;95711.13;;;20.48;93.82
40245;BME280;25963;42.694;23.600;2023-09-18T01:47:10;95714.94;;;20.78;92.84
40245;BME280;25963;42.694;23.600;2023-09-18T01:49:38;95713.06;;;20.63;92.66
40245;BME280;25963;42.694;23.600;2023-09-18T01:52:05;95674.97;;;20.51;92.07
40245;BME280;25963;42.694;23.600;2023-09-18T01:54:32;95706.31;;;20.35;93.64
40245;BME280;25963;42.694;23.600;2023-09-18T01:56:58;95682.91;;;20.00;94.82
40245;BME280;25963;42.694;23.600;2023-09-18T01:59:24;95701.41;;;20.06;95.22
40245;BME280;25963;42.694;23.600;2023-09-18T02:01:50;95718.59;;;20.21;94.82
40245;BME280;25963;42.694;23.600;2023-09-18T02:04:16;95690.41;;;19.93;95.03
40245;BME280;25963;42.694;23.600;2023-09-18T02:06:42;95722.88;;;20.17;94.76
40245;BME280;25963;42.694;23.600;2023-09-18T02:09:08;95690.47;;;20.18;93.55
40245;BME280;25963;42.694;23.600;2023-09-18T02:11:38;95688.03;;;20.01;94.42
40245;BME280;25963;42.694;23.600;2023-09-18T02:14:04;95696.88;;;20.12;94.51
40245;BME280;25963;42.694;23.600;2023-09-18T02:16:35;95726.91;;;20.19;94.42
40245;BME280;25963;42.694;23.600;2023-09-18T02:19:02;95716.66;;;20.01;94.51
40245;BME280;25963;42.694;23.600;2023-09-18T02:21:27;95728.22;;;20.22;94.12
40245;BME280;25963;42.694;23.600;2023-09-18T02:23:53;95732.50;;;20.13;94.71
40245;BME280;25963;42.694;23.600;2023-09-18T02:26:20;95719.09;;;20.13;94.56
40245;BME280;25963;42.694;23.600;2023-09-18T02:28:46;95695.28;;;20.11;93.56
40245;BME280;25963;42.694;23.600;2023-09-18T02:31:11;95709.63;;;19.79;95.13
40245;BME280;25963;42.694;23.600;2023-09-18T02:33:38;95705.13;;;20.00;93.80
40245;BME280;25963;42.694;23.600;2023-09-18T02:36:04;95726.38;;;20.27;92.85
40245;BME280;25963;42.694;23.600;2023-09-18T02:38:29;95712.41;;;20.10;91.99
40245;BME280;25963;42.694;23.600;2023-09-18T02:40:58;95703.34;;;20.16;91.89
40245;BME280;25963;42.694;23.600;2023-09-18T02:43:23;95716.50;;;20.43;90.70
40245;BME280;25963;42.694;23.600;2023-09-18T02:45:50;95720.22;;;20.42;91.15
40245;BME280;25963;42.694;23.600;2023-09-18T02:48:15;95684.38;;;20.54;89.81
40245;BME280;25963;42.694;23.600;2023-09-18T02:50:41;95715.75;;;20.58;90.07
40245;BME280;25963;42.694;23.600;2023-09-18T02:53:09;95696.13;;;20.37;90.45
40245;BME280;25963;42.694;23.600;2023-09-18T02:55:36;95699.84;;;20.31;91.26
40245;BME280;25963;42.694;23.600;2023-09-18T02:58:02;95685.34;;;20.01;92.68
40245;BME280;25963;42.694;23.600;2023-09-18T03:00:28;95691.81;;;20.11;92.61
40245;BME280;25963;42.694;23.600;2023-09-18T03:02:53;95678.91;;;20.02;92.29
40245;BME280;25963;42.694;23.600;2023-09-18T03:05:19;95696.03;;;19.96;92.97
40245;BME280;25963;42.694;23.600;2023-09-18T03:07:44;95712.16;;;20.17;91.61
40245;BME280;25963;42.694;23.600;2023-09-18T03:10:10;95710.41;;;19.75;94.01
40245;BME280;25963;42.694;23.600;2023-09-18T03:12:39;95723.09;;;20.00;93.76
40245;BME280;25963;42.694;23.600;2023-09-18T03:15:05;95704.50;;;19.68;94.41
40245;BME280;25963;42.694;23.600;2023-09-18T03:17:31;95690.59;;;19.66;94.12
40245;BME280;25963;42.694;23.600;2023-09-18T03:19:57;95720.66;;;19.41;96.91
40245;BME280;25963;42.694;23.600;2023-09-18T03:22:22;95714.25;;;19.47;96.45
40245;BME280;25963;42.694;23.600;2023-09-18T03:24:47;95718.97;;;19.29;96.50
40245;BME280;25963;42.694;23.600;2023-09-18T03:27:13;95711.78;;;19.35;96.80
40245;BME280;25963;42.694;23.600;2023-09-18T03:29:38;95701.28;;;18.81;99.02
40245;BME280;25963;42.694;23.600;2023-09-18T03:32:04;95706.03;;;19.11;98.02
40245;BME280;25963;42.694;23.600;2023-09-18T03:34:29;95680.94;;;19.17;96.92
40245;BME280;25963;42.694;23.600;2023-09-18T03:36:55;95697.44;;;19.04;97.96
40245;BME280;25963;42.694;23.600;2023-09-18T03:39:21;95699.19;;;19.30;97.53
40245;BME280;25963;42.694;23.600;2023-09-18T03:41:46;95675.16;;;18.93;98.44
40245;BME280;25963;42.694;23.600;2023-09-18T03:44:12;95668.59;;;19.11;97.50
40245;BME280;25963;42.694;23.600;2023-09-18T03:46:37;95685.56;;;19.27;97.87
40245;BME280;25963;42.694;23.600;2023-09-18T03:49:03;95675.34;;;19.19;97.49
40245;BME280;25963;42.694;23.600;2023-09-18T03:51:29;95672.19;;;19.27;97.15
40245;BME280;25963;42.694;23.600;2023-09-18T03:53:55;95681.31;;;19.41;96.47
40245;BME280;25963;42.694;23.600;2023-09-18T03:56:21;95686.69;;;18.93;98.87
40245;BME280;25963;42.694;23.600;2023-09-18T03:58:47;95703.28;;;19.43;97.65
40245;BME280;25963;42.694;23.600;2023-09-18T04:01:15;95686.63;;;19.31;96.98
40245;BME280;25963;42.694;23.600;2023-09-18T04:03:41;95713.53;;;19.56;95.96
40245;BME280;25963;42.694;23.600;2023-09-18T04:06:06;95676.75;;;19.36;96.10
40245;BME280;25963;42.694;23.600;2023-09-18T04:08:32;95672.25;;;19.47;96.12
40245;BME280;25963;42.694;23.600;2023-09-18T04:10:57;95674.72;;;19.54;94.86
40245;BME280;25963;42.694;23.600;2023-09-18T04:13:23;95684.63;;;19.58;94.80
40245;BME280;25963;42.694;23.600;2023-09-18T04:15:48;95691.81;;;19.48;95.32
40245;BME280;25963;42.694;23.600;2023-09-18T04:18:14;95681.16;;;19.63;93.97
40245;BME280;25963;42.694;23.600;2023-09-18T04:20:39;95703.91;;;19.60;94.24
40245;BME280;25963;42.694;23.600;2023-09-18T04:23:24;95695.41;;;19.69;93.94
40245;BME280;25963;42.694;23.600;2023-09-18T04:25:52;95703.97;;;19.71;93.53
40245;BME280;25963;42.694;23.600;2023-09-18T04:28:19;95705.09;;;19.32;95.13
40245;BME280;25963;42.694;23.600;2023-09-18T04:30:44;95708.34;;;19.39;94.96
40245;BME280;25963;42.694;23.600;2023-09-18T04:33:11;95660.34;;;18.75;96.63
40245;BME280;25963;42.694;23.600;2023-09-18T04:35:38;95684.44;;;19.23;95.45
40245;BME280;25963;42.694;23.600;2023-09-18T04:38:06;95691.59;;;19.12;96.67
40245;BME280;25963;42.694;23.600;2023-09-18T04:40:31;95690.97;;;18.95;97.59
40245;BME280;25963;42.694;23.600;2023-09-18T04:43:01;95683.00;;;19.05;97.06
40245;BME280;25963;42.694;23.600;2023-09-18T04:45:28;95698.47;;;18.98;98.90
40245;BME280;25963;42.694;23.600;2023-09-18T04:47:54;95706.59;;;19.13;99.05
40245;BME280;25963;42.694;23.600;2023-09-18T04:50:19;95694.94;;;19.34;97.03
40245;BME280;25963;42.694;23.600;2023-09-18T04:52:45;95702.50;;;20.11;93.05
40245;BME280;25963;42.694;23.600;2023-09-18T04:55:10;95709.25;;;20.49;90.92
40245;BME280;25963;42.694;23.600;2023-09-18T04:57:37;95700.47;;;20.74;88.63
40245;BME280;25963;42.694;23.600;2023-09-18T05:00:03;95675.81;;;20.82;87.69
40245;BME280;25963;42.694;23.600;2023-09-18T05:02:33;95674.91;;;21.43;83.60
40245;BME280;25963;42.694;23.600;2023-09-18T05:05:00;95676.25;;;22.05;80.39
40245;BME280;25963;42.694;23.600;2023-09-18T05:07:25;95709.16;;;22.37;78.12
40245;BME280;25963;42.694;23.600;2023-09-18T05:09:51;95707.78;;;21.79;81.14
40245;BME280;25963;42.694;23.600;2023-09-18T05:12:17;95677.31;;;21.34;83.12
40245;BME280;25963;42.694;23.600;2023-09-18T05:14:43;95670.25;;;21.69;81.16
40245;BME280;25963;42.694;23.600;2023-09-18T05:17:10;95703.50;;;21.78;81.98
40245;BME280;25963;42.694;23.600;2023-09-18T05:19:39;95668.69;;;21.53;81.90
40245;BME280;25963;42.694;23.600;2023-09-18T05:22:04;95676.03;;;21.16;83.88
40245;BME280;25963;42.694;23.600;2023-09-18T05:24:30;95684.84;;;21.37;83.82
40245;BME280;25963;42.694;23.600;2023-09-18T05:26:55;95706.44;;;21.82;83.43
40245;BME280;25963;42.694;23.600;2023-09-18T05:29:21;95691.34;;;21.96;81.02
40245;BME280;25963;42.694;23.600;2023-09-18T05:31:46;95695.22;;;21.64;82.68
40245;BME280;25963;42.694;23.600;2023-09-18T05:34:12;95720.53;;;22.13;81.28
40245;BME280;25963;42.694;23.600;2023-09-18T05:36:38;95689.91;;;21.54;82.98
40245;BME280;25963;42.694;23.600;2023-09-18T05:39:03;95680.97;;;21.74;82.41
40245;BME280;25963;42.694;23.600;2023-09-18T05:41:29;95675.47;;;22.05;81.67
40245;BME280;25963;42.694;23.600;2023-09-18T05:43:56;95714.41;;;22.52;78.93
40245;BME280;25963;42.694;23.600;2023-09-18T05:46:22;95676.00;;;22.86;76.70
40245;BME280;25963;42.694;23.600;2023-09-18T05:48:47;95679.09;;;22.69;76.14
40245;BME280;25963;42.694;23.600;2023-09-18T05:51:12;95687.31;;;22.83;75.19
40245;BME280;25963;42.694;23.600;2023-09-18T05:53:38;95680.13;;;22.39;76.31
40245;BME280;25963;42.694;23.600;2023-09-18T05:56:04;95704.94;;;22.99;76.45
40245;BME280;25963;42.694;23.600;2023-09-18T05:58:31;95711.22;;;23.72;73.37
40245;BME280;25963;42.694;23.600;2023-09-18T06:00:58;95721.81;;;23.63;71.33
40245;BME280;25963;42.694;23.600;2023-09-18T06:03:28;95718.56;;;23.90;70.35
40245;BME280;25963;42.694;23.600;2023-09-18T06:05:55;95728.63;;;23.84;70.73
40245;BME280;25963;42.694;23.600;2023-09-18T06:08:21;95702.28;;;23.52;69.83
40245;BME280;25963;42.694;23.600;2023-09-18T06:10:47;95710.09;;;23.24;71.37
40245;BME280;25963;42.694;23.600;2023-09-18T06:13:13;95723.34;;;23.45;70.39
40245;BME280;25963;42.694;23.600;2023-09-18T06:15:38;95699.00;;;23.55;69.32
40245;BME280;25963;42.694;23.600;2023-09-18T06:18:04;95696.28;;;23.60;69.79
40245;BME280;25963;42.694;23.600;2023-09-18T06:20:31;95722.47;;;23.79;67.94
40245;BME280;25963;42.694;23.600;2023-09-18T06:22:56;95728.94;;;23.24;70.79
40245;BME280;25963;42.694;23.600;2023-09-18T06:25:22;95718.31;;;23.62;69.29
40245;BME280;25963;42.694;23.600;2023-09-18T06:27:47;95709.72;;;23.60;69.31
40245;BME280;25963;42.694;23.600;2023-09-18T06:30:13;95714.88;;;23.81;66.70
40245;BME280;25963;42.694;23.600;2023-09-18T06:32:38;95709.25;;;24.01;65.66
40245;BME280;25963;42.694;23.600;2023-09-18T06:35:04;95698.50;;;23.77;66.30
40245;BME280;25963;42.694;23.600;2023-09-18T06:37:29;95722.53;;;23.44;68.18
40245;BME280;25963;42.694;23.600;2023-09-18T06:39:55;95720.34;;;23.76;68.60
40245;BME280;25963;42.694;23.600;2023-09-18T06:42:22;95720.06;;;23.48;69.00
40245;BME280;25963;42.694;23.600;2023-09-18T06:44:47;95688.00;;;24.19;63.73
40245;BME280;25963;42.694;23.600;2023-09-18T06:47:13;95720.44;;;24.70;64.35
40245;BME280;25963;42.694;23.600;2023-09-18T06:49:40;95709.56;;;24.19;66.34
40245;BME280;25963;42.694;23.600;2023-09-18T06:52:07;95707.69;;;24.76;63.75
40245;BME280;25963;42.694;23.600;2023-09-18T06:54:32;95719.63;;;24.13;65.79
40245;BME280;25963;42.694;23.600;2023-09-18T06:56:58;95699.19;;;23.88;65.03
40245;BME280;25963;42.694;23.600;2023-09-18T06:59:23;95707.72;;;24.38;63.23
40245;BME280;25963;42.694;23.600;2023-09-18T07:01:49;95712.09;;;25.04;63.00
40245;BME280;25963;42.694;23.600;2023-09-18T07:04:14;95720.38;;;24.75;62.02
40245;BME280;25963;42.694;23.600;2023-09-18T07:06:40;95700.16;;;24.35;63.10
40245;BME280;25963;42.694;23.600;2023-09-18T07:09:05;95683.91;;;25.11;62.85
40245;BME280;25963;42.694;23.600;2023-09-18T07:11:35;95694.97;;;24.95;61.31
40245;BME280;25963;42.694;23.600;2023-09-18T07:14:00;95708.81;;;25.08;62.11
40245;BME280;25963;42.694;23.600;2023-09-18T07:16:27;95703.34;;;24.42;63.84
40245;BME280;25963;42.694;23.600;2023-09-18T07:18:53;95696.75;;;24.86;60.53
40245;BME280;25963;42.694;23.600;2023-09-18T07:21:18;95694.50;;;24.36;63.93
40245;BME280;25963;42.694;23.600;2023-09-18T07:23:45;95712.38;;;24.51;63.46
40245;BME280;25963;42.694;23.600;2023-09-18T07:26:11;95696.16;;;24.89;62.64
40245;BME280;25963;42.694;23.600;2023-09-18T07:28:36;95722.56;;;25.06;63.06
40245;BME280;25963;42.694;23.600;2023-09-18T07:31:07;95721.44;;;24.93;61.52
40245;BME280;25963;42.694;23.600;2023-09-18T07:33:32;95717.06;;;25.16;62.96
40245;BME280;25963;42.694;23.600;2023-09-18T07:35:58;95716.09;;;25.54;59.72
40245;BME280;25963;42.694;23.600;2023-09-18T07:38:23;95689.03;;;25.86;60.96
40245;BME280;25963;42.694;23.600;2023-09-18T07:40:50;95715.94;;;25.91;57.22
40245;BME280;25963;42.694;23.600;2023-09-18T07:43:15;95706.69;;;26.20;55.34
40245;BME280;25963;42.694;23.600;2023-09-18T07:45:41;95707.34;;;26.03;57.82
40245;BME280;25963;42.694;23.600;2023-09-18T07:48:07;95700.47;;;26.19;53.98
40245;BME280;25963;42.694;23.600;2023-09-18T07:50:33;95716.88;;;26.23;53.72
40245;BME280;25963;42.694;23.600;2023-09-18T07:53:00;95718.69;;;25.45;56.51
40245;BME280;25963;42.694;23.600;2023-09-18T07:55:25;95690.78;;;25.36;59.76
40245;BME280;25963;42.694;23.600;2023-09-18T07:57:51;95726.19;;;24.82;59.26
40245;BME280;25963;42.694;23.600;2023-09-18T08:00:17;95710.19;;;25.51;58.64
40245;BME280;25963;42.694;23.600;2023-09-18T08:02:43;95717.75;;;26.46;55.95
40245;BME280;25963;42.694;23.600;2023-09-18T08:05:09;95701.13;;;26.03;56.00
40245;BME280;25963;42.694;23.600;2023-09-18T08:07:38;95671.69;;;26.01;54.06
40245;BME280;25963;42.694;23.600;2023-09-18T08:10:04;95711.00;;;26.21;55.87
40245;BME280;25963;42.694;23.600;2023-09-18T08:12:36;95712.44;;;26.55;56.29
40245;BME280;25963;42.694;23.600;2023-09-18T08:15:02;95711.81;;;26.08;55.42
40245;BME280;25963;42.694;23.600;2023-09-18T08:17:28;95700.09;;;26.85;57.21
40245;BME280;25963;42.694;23.600;2023-09-18T08:19:53;95704.47;;;26.22;54.40
40245;BME280;25963;42.694;23.600;2023-09-18T08:22:19;95695.94;;;26.29;53.66
40245;BME280;25963;42.694;23.600;2023-09-18T08:24:49;95678.59;;;26.44;53.03
40245;BME280;25963;42.694;23.600;2023-09-18T08:27:18;95672.09;;;26.45;54.28
40245;BME280;25963;42.694;23.600;2023-09-18T08:29:45;95682.19;;;26.98;54.24
40245;BME280;25963;42.694;23.600;2023-09-18T08:32:10;95691.00;;;27.26;53.49
40245;BME280;25963;42.694;23.600;2023-09-18T08:34:36;95674.19;;;27.86;53.51
40245;BME280;25963;42.694;23.600;2023-09-18T08:37:04;95659.91;;;27.63;51.42
40245;BME280;25963;42.694;23.600;2023-09-18T08:39:30;95686.78;;;27.82;49.75
40245;BME280;25963;42.694;23.600;2023-09-18T08:42:02;95672.34;;;26.79;51.05
40245;BME280;25963;42.694;23.600;2023-09-18T08:44:29;95651.50;;;27.02;50.91
40245;BME280;25963;42.694;23.600;2023-09-18T08:46:55;95662.03;;;26.81;51.94
40245;BME280;25963;42.694;23.600;2023-09-18T08:49:25;95649.25;;;27.27;48.97
40245;BME280;25963;42.694;23.600;2023-09-18T08:51:54;95646.59;;;27.36;49.46
40245;BME280;25963;42.694;23.600;2023-09-18T08:54:21;95658.00;;;28.21;48.53
40245;BME280;25963;42.694;23.600;2023-09-18T08:56:49;95656.44;;;27.31;48.21
40245;BME280;25963;42.694;23.600;2023-09-18T08:59:16;95664.75;;;27.35;47.78
40245;BME280;25963;42.694;23.600;2023-09-18T09:01:41;95651.66;;;27.06;49.80
40245;BME280;25963;42.694;23.600;2023-09-18T09:04:07;95654.16;;;27.56;48.37
40245;BME280;25963;42.694;23.600;2023-09-18T09:06:32;95657.22;;;27.72;47.52
40245;BME280;25963;42.694;23.600;2023-09-18T09:08:58;95644.28;;;27.60;48.57
40245;BME280;25963;42.694;23.600;2023-09-18T09:11:24;95660.72;;;28.21;46.50
40245;BME280;25963;42.694;23.600;2023-09-18T09:16:38;95637.06;;;28.04;44.35
40245;BME280;25963;42.694;23.600;2023-09-18T09:19:04;95641.75;;;28.64;43.56
40245;BME280;25963;42.694;23.600;2023-09-18T09:21:40;95625.63;;;29.32;43.59
40245;BME280;25963;42.694;23.600;2023-09-18T09:24:06;95656.91;;;29.86;42.10
40245;BME280;25963;42.694;23.600;2023-09-18T09:26:32;95633.75;;;28.68;42.72
40245;BME280;25963;42.694;23.600;2023-09-18T09:29:14;95653.34;;;28.91;43.05
40245;BME280;25963;42.694;23.600;2023-09-18T09:31:40;95648.72;;;29.09;43.80
40245;BME280;25963;42.694;23.600;2023-09-18T09:34:06;95638.34;;;30.09;41.60
40245;BME280;25963;42.694;23.600;2023-09-18T09:36:31;95634.91;;;30.62;39.41
40245;BME280;25963;42.694;23.600;2023-09-18T09:38:58;95632.03;;;30.25;40.02
40245;BME280;25963;42.694;23.600;2023-09-18T09:41:24;95634.13;;;30.20;39.13
40245;BME280;25963;42.694;23.600;2023-09-18T09:43:53;95624.22;;;30.78;40.06
40245;BME280;25963;42.694;23.600;2023-09-18T09:46:20;95634.91;;;29.99;39.85
40245;BME280;25963;42.694;23.600;2023-09-18T09:49:03;95633.75;;;29.41;40.07
40245;BME280;25963;42.694;23.600;2023-09-18T09:51:30;95632.50;;;29.30;41.10
40245;BME280;25963;42.694;23.600;2023-09-18T09:53:55;95633.84;;;29.53;40.24
40245;BME280;25963;42.694;23.600;2023-09-18T09:56:43;95627.75;;;29.56;41.10
40245;BME280;25963;42.694;23.600;2023-09-18T09:59:09;95610.31;;;29.66;42.86
40245;BME280;25963;42.694;23.600;2023-09-18T10:01:35;95626.81;;;30.12;39.44
40245;BME280;25963;42.694;23.600;2023-09-18T10:04:08;95616.66;;;30.63;39.31
40245;BME280;25963;42.694;23.600;2023-09-18T10:06:35;95620.38;;;30.16;38.56
40245;BME280;25963;42.694;23.600;2023-09-18T10:09:06;95618.66;;;30.54;38.11
40245;BME280;25963;42.694;23.600;2023-09-18T10:11:40;95607.00;;;30.32;37.89
40245;BME280;25963;42.694;23.600;2023-09-18T10:14:30;95599.81;;;31.27;37.05
40245;BME280;25963;42.694;23.600;2023-09-18T10:16:57;95595.09;;;31.36;35.56
40245;BME280;25963;42.694;23.600;2023-09-18T10:19:28;95601.03;;;30.72;36.57
40245;BME280;25963;42.694;23.600;2023-09-18T10:24:33;95596.63;;;30.05;37.86
40245;BME280;25963;42.694;23.600;2023-09-18T10:27:02;95569.72;;;31.24;37.49
40245;BME280;25963;42.694;23.600;2023-09-18T10:29:30;95593.41;;;30.99;35.86
40245;BME280;25963;42.694;23.600;2023-09-18T10:31:56;95599.41;;;30.59;37.20
40245;BME280;25963;42.694;23.600;2023-09-18T10:34:24;95575.19;;;30.78;36.55
40245;BME280;25963;42.694;23.600;2023-09-18T10:36:51;95589.03;;;30.73;37.02
40245;BME280;25963;42.694;23.600;2023-09-18T10:39:17;95583.06;;;30.59;37.68
40245;BME280;25963;42.694;23.600;2023-09-18T10:41:51;95573.53;;;30.11;37.48
40245;BME280;25963;42.694;23.600;2023-09-18T10:44:16;95574.19;;;30.83;36.82
40245;BME280;25963;42.694;23.600;2023-09-18T10:46:46;95584.75;;;30.30;37.46
40245;BME280;25963;42.694;23.600;2023-09-18T10:49:12;95556.00;;;30.41;36.64
40245;BME280;25963;42.694;23.600;2023-09-18T10:51:38;95568.75;;;30.50;36.54
40245;BME280;25963;42.694;23.600;2023-09-18T10:54:11;95566.75;;;31.16;35.05
40245;BME280;25963;42.694;23.600;2023-09-18T10:56:41;95548.88;;;30.37;36.97
40245;BME280;25963;42.694;23.600;2023-09-18T10:59:07;95549.25;;;29.85;38.21
40245;BME280;25963;42.694;23.600;2023-09-18T11:01:34;95571.78;;;29.55;39.49
40245;BME280;25963;42.694;23.600;2023-09-18T11:04:04;95579.00;;;29.22;40.29
40245;BME280;25963;42.694;23.600;2023-09-18T11:12:09;95561.13;;;28.39;42.38
40245;BME280;25963;42.694;23.600;2023-09-18T11:17:35;95568.97;;;28.58;42.18
40245;BME280;25963;42.694;23.600;2023-09-18T11:22:48;95551.44;;;27.94;44.73
40245;BME280;25963;42.694;23.600;2023-09-18T11:28:15;95547.91;;;28.46;42.93
40245;BME280;25963;42.694;23.600;2023-09-18T11:30:57;95549.47;;;28.56;41.74
40245;BME280;25963;42.694;23.600;2023-09-18T11:33:37;95552.53;;;29.10;40.70
40245;BME280;25963;42.694;23.600;2023-09-18T11:36:14;95547.72;;;29.16;40.66
40245;BME280;25963;42.694;23.600;2023-09-18T11:38:56;95552.84;;;28.44;41.52
40245;BME280;25963;42.694;23.600;2023-09-18T11:41:26;95536.41;;;28.49;41.43
40245;BME280;25963;42.694;23.600;2023-09-18T11:43:52;95546.09;;;29.23;41.61
40245;BME280;25963;42.694;23.600;2023-09-18T11:46:39;95543.69;;;29.22;39.74
40245;BME280;25963;42.694;23.600;2023-09-18T11:49:08;95544.53;;;28.32;40.05
40245;BME280;25963;42.694;23.600;2023-09-18T11:51:36;95542.47;;;28.46;41.32
40245;BME280;25963;42.694;23.600;2023-09-18T11:54:03;95536.53;;;28.61;42.21
40245;BME280;25963;42.694;23.600;2023-09-18T11:56:39;95529.19;;;29.18;40.02
40245;BME280;25963;42.694;23.600;2023-09-18T11:59:05;95511.44;;;28.73;42.02
40245;BME280;25963;42.694;23.600;2023-09-18T12:01:32;95514.94;;;28.74;40.73
40245;BME280;25963;42.694;23.600;2023-09-18T12:04:02;95517.31;;;28.84;40.84
40245;BME280;25963;42.694;23.600;2023-09-18T12:06:33;95523.34;;;29.28;39.35
40245;BME280;25963;42.694;23.600;2023-09-18T12:08:59;95517.78;;;29.54;39.30
40245;BME280;25963;42.694;23.600;2023-09-18T12:11:25;95526.41;;;29.56;39.60
40245;BME280;25963;42.694;23.600;2023-09-18T12:13:51;95518.13;;;29.73;37.99
40245;BME280;25963;42.694;23.600;2023-09-18T12:16:17;95498.56;;;29.08;38.36
40245;BME280;25963;42.694;23.600;2023-09-18T12:18:50;95513.59;;;29.86;39.44
40245;BME280;25963;42.694;23.600;2023-09-18T12:21:16;95502.38;;;28.60;39.59
40245;BME280;25963;42.694;23.600;2023-09-18T12:23:44;95494.84;;;29.13;39.47
40245;BME280;25963;42.694;23.600;2023-09-18T12:26:14;95509.53;;;29.42;40.55
40245;BME280;25963;42.694;23.600;2023-09-18T12:28:41;95497.47;;;28.92;39.69
40245;BME280;25963;42.694;23.600;2023-09-18T12:31:15;95505.75;;;29.34;39.19
40245;BME280;25963;42.694;23.600;2023-09-18T12:33:42;95508.16;;;29.06;38.51
40245;BME280;25963;42.694;23.600;2023-09-18T12:36:19;95513.13;;;29.54;38.14
40245;BME280;25963;42.694;23.600;2023-09-18T12:38:55;95483.44;;;29.91;37.24
40245;BME280;25963;42.694;23.600;2023-09-18T12:41:24;95496.94;;;29.67;37.67
40245;BME280;25963;42.694;23.600;2023-09-18T12:43:53;95486.03;;;29.16;38.62
40245;BME280;25963;42.694;23.600;2023-09-18T12:46:19;95507.44;;;28.71;38.87
40245;BME280;25963;42.694;23.600;2023-09-18T12:48:47;95485.63;;;28.97;37.88
40245;BME280;25963;42.694;23.600;2023-09-18T12:51:14;95469.38;;;29.47;37.68
40245;BME280;25963;42.694;23.600;2023-09-18T12:53:40;95469.47;;;29.60;37.80
40245;BME280;25963;42.694;23.600;2023-09-18T12:56:11;95467.84;;;29.38;38.10
40245;BME280;25963;42.694;23.600;2023-09-18T12:58:38;95479.56;;;29.29;37.70
40245;BME280;25963;42.694;23.600;2023-09-18T13:01:05;95475.66;;;29.69;38.58
40245;BME280;25963;42.694;23.600;2023-09-18T13:03:45;95463.78;;;29.73;37.13
40245;BME280;25963;42.694;23.600;2023-09-18T13:06:21;95481.88;;;29.90;38.63
40245;BME280;25963;42.694;23.600;2023-09-18T13:08:47;95482.41;;;29.63;38.83
40245;BME280;25963;42.694;23.600;2023-09-18T13:11:13;95482.09;;;29.55;39.26
40245;BME280;25963;42.694;23.600;2023-09-18T13:13:42;95483.56;;;28.38;42.14
40245;BME280;25963;42.694;23.600;2023-09-18T13:16:11;95476.06;;;28.52;42.55
40245;BME280;25963;42.694;23.600;2023-09-18T13:18:38;95461.38;;;28.53;42.24
40245;BME280;25963;42.694;23.600;2023-09-18T13:21:14;95457.44;;;28.33;42.90